Romanovka, Russia
Current Conditions -  °F | °C
As of 10:00 PM on Thursday 18 Dec 2014 (Local Time) from UIAA Reporting Station
Clear Clear  
Wind Chill:   Ceiling: Unl
Heat Index: 10°   Visibility: 6mi
Dew Point:   Wind: 7mph
Humidity: 62%   Direction: NA
Pressure: 30.03"   Gusts: NA
Location:  53.2°N, 112.78°E
Report Text: UIAA 181400Z VRB03MPS 9999 SKC M12/M18 Q1017 NOSIG RMK QFE70429CLRD70
Loading
Personal Weather Stations






























Interactive Weather Map New forecast layout! Learn more

10-Day Weather Forecast

Advertisements
Track Severe Weather on mobile